createdAt,value
2023-04-15T00:02:02.603Z,99641.69
2023-04-15T00:04:32.006Z,99645.97
2023-04-15T00:07:00.670Z,99630.66
2023-04-15T00:09:28.724Z,99636.63
2023-04-15T00:11:56.568Z,99640.97
2023-04-15T00:14:24.446Z,99637.53
2023-04-15T00:16:56.320Z,99633.28
2023-04-15T00:19:25.487Z,99635.09
2023-04-15T00:21:53.411Z,99617.97
2023-04-15T00:24:21.849Z,99632.38
2023-04-15T00:26:49.920Z,99625.38
2023-04-15T00:29:17.688Z,99615.59
2023-04-15T00:31:45.668Z,99616.22
2023-04-15T00:34:14.094Z,99620.19
2023-04-15T00:36:44.854Z,99631.25
2023-04-15T00:39:13.555Z,99612.47
2023-04-15T00:41:45.781Z,99624.00
2023-04-15T00:44:13.907Z,99624.69
2023-04-15T00:46:45.590Z,99619.50
2023-04-15T00:49:13.720Z,99627.41
2023-04-15T00:51:41.616Z,99624.75
2023-04-15T00:54:09.748Z,99615.91
2023-04-15T00:56:39.196Z,99612.56
2023-04-15T00:59:08.007Z,99618.75
2023-04-15T01:01:37.220Z,99613.38
2023-04-15T01:04:06.173Z,99611.38
2023-04-15T01:06:34.286Z,99620.31
2023-04-15T01:09:02.646Z,99602.31
2023-04-15T01:11:36.210Z,99621.88
2023-04-15T01:14:04.629Z,99621.00
2023-04-15T01:16:32.598Z,99604.97
2023-04-15T01:19:01.229Z,99617.69
2023-04-15T01:21:32.089Z,99610.59
2023-04-15T01:24:00.325Z,99619.31
2023-04-15T01:26:28.612Z,99608.75
2023-04-15T01:28:56.537Z,99624.13
2023-04-15T01:31:25.129Z,99618.19
2023-04-15T01:33:52.986Z,99612.72
2023-04-15T01:36:39.393Z,99604.38
2023-04-15T01:39:07.516Z,99612.72
2023-04-15T01:41:35.236Z,99624.31
2023-04-15T01:44:04.477Z,99615.56
2023-04-15T01:46:33.868Z,99611.63
2023-04-15T01:49:04.357Z,99624.59
2023-04-15T01:51:34.880Z,99610.53
2023-04-15T01:54:04.360Z,99627.94
2023-04-15T01:56:33.688Z,99617.88
2023-04-15T01:59:03.969Z,99622.19
2023-04-15T02:01:33.501Z,99612.81
2023-04-15T02:04:02.863Z,99610.59
2023-04-15T02:06:33.723Z,99619.16
2023-04-15T02:09:03.302Z,99613.97
2023-04-15T02:11:37.381Z,99620.22
2023-04-15T02:14:06.744Z,99623.13
2023-04-15T02:16:36.329Z,99613.22
2023-04-15T02:19:08.223Z,99622.81
2023-04-15T02:21:40.310Z,99610.88
2023-04-15T02:24:09.648Z,99615.84
2023-04-15T02:26:38.789Z,99616.91
2023-04-15T02:29:07.880Z,99629.38
2023-04-15T02:31:40.627Z,99613.59
2023-04-15T02:34:12.573Z,99630.88
2023-04-15T02:36:45.852Z,99633.53
2023-04-15T02:39:17.030Z,99625.53
2023-04-15T02:41:51.927Z,99619.63
2023-04-15T02:44:21.897Z,99616.56
2023-04-15T02:46:53.847Z,99635.72
2023-04-15T02:49:24.278Z,99637.25
2023-04-15T02:51:53.442Z,99626.22
2023-04-15T02:54:27.307Z,99627.09
2023-04-15T02:56:56.922Z,99625.00
2023-04-15T02:59:26.172Z,99630.22
2023-04-15T03:01:56.687Z,99633.50
2023-04-15T03:04:26.102Z,99631.31
2023-04-15T03:06:55.509Z,99634.53
2023-04-15T03:09:25.206Z,99633.53
2023-04-15T03:11:55.099Z,99635.78
2023-04-15T03:14:24.712Z,99630.81
2023-04-15T03:16:53.918Z,99644.44
2023-04-15T03:19:23.050Z,99649.44
2023-04-15T03:21:52.331Z,99642.88
2023-04-15T03:24:21.540Z,99651.53
2023-04-15T03:26:50.878Z,99647.25
2023-04-15T03:29:21.102Z,99656.28
2023-04-15T03:31:50.885Z,99642.97
2023-04-15T03:34:20.592Z,99660.34
2023-04-15T03:36:49.777Z,99658.66
2023-04-15T03:39:19.845Z,99655.41
2023-04-15T03:41:49.034Z,99657.03
2023-04-15T03:44:18.216Z,99658.38
2023-04-15T03:46:47.412Z,99651.09
2023-04-15T03:49:16.620Z,99656.00
2023-04-15T03:51:46.216Z,99647.81
2023-04-15T03:54:15.506Z,99646.75
2023-04-15T03:56:44.600Z,99642.72
2023-04-15T03:59:13.698Z,99655.53
2023-04-15T04:01:42.906Z,99654.75
2023-04-15T04:04:12.527Z,99665.31
2023-04-15T04:06:42.033Z,99665.91
2023-04-15T04:09:11.341Z,99677.31
2023-04-15T04:11:40.420Z,99667.22
2023-04-15T04:14:10.775Z,99661.47
2023-04-15T04:16:39.977Z,99662.81
2023-04-15T04:19:09.221Z,99675.13
2023-04-15T04:21:39.816Z,99671.25
2023-04-15T04:24:08.979Z,99670.44
2023-04-15T04:26:38.125Z,99663.44
2023-04-15T04:29:07.285Z,99673.81
2023-04-15T04:31:36.723Z,99671.09
2023-04-15T04:34:09.187Z,99669.22
2023-04-15T04:36:38.261Z,99654.06
2023-04-15T04:39:07.321Z,99678.50
2023-04-15T04:41:36.414Z,99671.75
2023-04-15T04:44:05.529Z,99679.06
2023-04-15T04:46:34.651Z,99669.94
2023-04-15T04:49:03.775Z,99675.88
2023-04-15T04:51:32.999Z,99679.19
2023-04-15T04:54:03.729Z,99687.25
2023-04-15T04:56:36.813Z,99688.38
2023-04-15T04:59:07.247Z,99683.22
2023-04-15T05:01:36.734Z,99687.28
2023-04-15T05:04:07.309Z,99703.59
2023-04-15T05:06:37.222Z,99706.81
2023-04-15T05:09:06.783Z,99710.84
2023-04-15T05:11:36.147Z,99709.78
2023-04-15T05:14:05.255Z,99700.81
2023-04-15T05:16:34.362Z,99710.81
2023-04-15T05:19:03.582Z,99723.56
2023-04-15T05:21:32.953Z,99714.47
2023-04-15T05:24:02.144Z,99717.38
2023-04-15T05:26:32.784Z,99721.63
2023-04-15T05:29:03.560Z,99732.69
2023-04-15T05:31:32.950Z,99717.25
2023-04-15T05:34:02.256Z,99722.78
2023-04-15T05:36:32.296Z,99728.66
2023-04-15T05:39:01.819Z,99727.88
2023-04-15T05:41:31.254Z,99732.63
2023-04-15T05:44:00.760Z,99758.09
2023-04-15T05:46:29.911Z,99756.31
2023-04-15T05:48:59.305Z,99746.75
2023-04-15T05:51:28.589Z,99750.78
2023-04-15T05:53:57.680Z,99746.75
2023-04-15T05:56:27.357Z,99749.16
2023-04-15T05:58:58.703Z,99757.97
2023-04-15T06:01:28.869Z,99749.16
2023-04-15T06:03:58.128Z,99752.03
2023-04-15T06:06:27.520Z,99745.44
2023-04-15T06:08:57.906Z,99755.41
2023-04-15T06:11:27.645Z,99750.97
2023-04-15T06:13:56.972Z,99745.41
2023-04-15T06:16:26.469Z,99751.91
2023-04-15T06:18:55.688Z,99742.56
2023-04-15T06:21:24.822Z,99761.63
2023-04-15T06:23:54.020Z,99749.13
2023-04-15T06:26:23.232Z,99758.75
2023-04-15T06:28:52.326Z,99737.88
2023-04-15T06:31:21.777Z,99746.34
2023-04-15T06:33:51.168Z,99746.53
2023-04-15T06:36:23.036Z,99748.00
2023-04-15T06:38:52.176Z,99742.13
2023-04-15T06:41:21.548Z,99760.56
2023-04-15T06:43:51.148Z,99764.28
2023-04-15T06:46:20.526Z,99762.63
2023-04-15T06:48:50.057Z,99758.00
2023-04-15T06:51:19.340Z,99749.84
2023-04-15T06:53:48.413Z,99759.53
2023-04-15T06:56:17.568Z,99753.69
2023-04-15T06:58:47.422Z,99757.13
2023-04-15T07:01:19.536Z,99768.66
2023-04-15T07:03:48.801Z,99768.41
2023-04-15T07:06:18.042Z,99752.97
2023-04-15T07:08:47.196Z,99763.66
2023-04-15T07:11:17.528Z,99766.44
2023-04-15T07:13:46.852Z,99771.31
2023-04-15T07:16:16.232Z,99760.41
2023-04-15T07:18:45.441Z,99753.41
2023-04-15T07:21:14.658Z,99760.06
2023-04-15T07:23:43.869Z,99758.56
2023-04-15T07:26:13.013Z,99774.63
2023-04-15T07:28:46.493Z,99762.13
2023-04-15T07:31:17.094Z,99750.47
2023-04-15T07:33:46.471Z,99761.75
2023-04-15T07:36:15.737Z,99751.38
2023-04-15T07:38:44.941Z,99765.19
2023-04-15T07:41:14.168Z,99767.41
2023-04-15T07:43:43.817Z,99761.75
2023-04-15T07:46:13.064Z,99759.56
2023-04-15T07:48:42.905Z,99759.78
2023-04-15T07:51:13.183Z,99750.53
2023-04-15T07:53:42.677Z,99754.38
2023-04-15T07:56:12.020Z,99758.00
2023-04-15T07:58:41.639Z,99751.94
2023-04-15T08:01:10.906Z,99764.22
2023-04-15T08:03:40.437Z,99747.94
2023-04-15T08:06:09.743Z,99755.16
2023-04-15T08:08:38.772Z,99761.47
2023-04-15T08:11:07.836Z,99759.22
2023-04-15T08:13:37.055Z,99767.19
2023-04-15T08:16:21.058Z,99768.25
2023-04-15T08:18:52.280Z,99771.50
2023-04-15T08:21:21.622Z,99772.03
2023-04-15T08:23:52.255Z,99771.44
2023-04-15T08:26:22.059Z,99760.13
2023-04-15T08:28:51.805Z,99770.13
2023-04-15T08:31:21.179Z,99764.69
2023-04-15T08:33:52.694Z,99769.06
2023-04-15T08:36:22.259Z,99773.28
2023-04-15T08:38:51.466Z,99768.56
2023-04-15T08:41:25.747Z,99764.47
2023-04-15T08:43:58.954Z,99772.91
2023-04-15T08:46:28.483Z,99775.75
2023-04-15T08:48:58.739Z,99767.00
2023-04-15T08:51:29.058Z,99765.25
2023-04-15T08:53:59.946Z,99769.13
2023-04-15T08:56:35.109Z,99768.13
2023-04-15T08:59:05.638Z,99761.59
2023-04-15T09:01:35.949Z,99769.34
2023-04-15T09:04:08.225Z,99765.59
2023-04-15T09:06:37.532Z,99758.13
2023-04-15T09:09:06.710Z,99766.56
2023-04-15T09:11:36.434Z,99773.78
2023-04-15T09:14:05.560Z,99755.34
2023-04-15T09:17:04.804Z,99766.38
2023-04-15T09:19:34.789Z,99762.41
2023-04-15T09:22:04.578Z,99774.09
2023-04-15T09:24:42.403Z,99757.53
2023-04-15T09:27:11.606Z,99764.28
2023-04-15T09:29:41.933Z,99763.72
2023-04-15T09:32:12.133Z,99762.34
2023-04-15T09:34:41.405Z,99750.47
2023-04-15T09:37:11.394Z,99757.13
2023-04-15T09:39:47.695Z,99752.63
2023-04-15T09:42:17.839Z,99748.22
2023-04-15T09:44:47.011Z,99759.94
2023-04-15T09:47:32.462Z,99747.34
2023-04-15T09:50:02.518Z,99761.97
2023-04-15T09:52:32.226Z,99750.03
2023-04-15T09:55:01.679Z,99742.34
2023-04-15T09:57:37.936Z,99751.75
2023-04-15T10:00:11.368Z,99738.25
2023-04-15T10:02:44.576Z,99745.00
2023-04-15T10:05:17.236Z,99739.28
2023-04-15T10:07:47.118Z,99747.41
2023-04-15T10:10:17.164Z,99742.06
2023-04-15T10:12:46.678Z,99741.63
2023-04-15T10:15:24.384Z,99741.59
2023-04-15T10:17:56.767Z,99738.50
2023-04-15T10:20:26.616Z,99733.97
2023-04-15T10:22:56.931Z,99726.47
2023-04-15T10:25:27.249Z,99732.81
2023-04-15T10:27:57.329Z,99720.97
2023-04-15T10:30:26.874Z,99715.66
2023-04-15T10:32:57.614Z,99718.97
2023-04-15T10:35:27.500Z,99725.03
2023-04-15T10:37:56.707Z,99723.63
2023-04-15T10:40:31.863Z,99714.84
2023-04-15T10:43:03.212Z,99708.53
2023-04-15T10:45:35.190Z,99732.66
2023-04-15T10:48:07.863Z,99721.44
2023-04-15T10:50:37.914Z,99723.50
2023-04-15T10:53:10.998Z,99715.56
2023-04-15T10:55:40.300Z,99715.69
2023-04-15T10:58:10.507Z,99722.91
2023-04-15T11:00:40.110Z,99723.22
2023-04-15T11:03:10.916Z,99711.72
2023-04-15T11:05:42.940Z,99705.19
2023-04-15T11:08:15.839Z,99711.19
2023-04-15T11:10:44.865Z,99698.97
2023-04-15T11:13:22.101Z,99700.97
2023-04-15T11:15:52.249Z,99704.53
2023-04-15T11:18:24.114Z,99712.06
2023-04-15T11:20:56.686Z,99702.81
2023-04-15T11:23:41.369Z,99699.75
2023-04-15T11:26:14.270Z,99700.38
2023-04-15T11:28:48.258Z,99709.94
2023-04-15T11:31:20.303Z,99704.50
2023-04-15T11:34:00.531Z,99707.72
2023-04-15T11:36:32.239Z,99695.28
2023-04-15T11:39:01.617Z,99699.94
2023-04-15T11:41:30.977Z,99699.84
2023-04-15T11:44:00.431Z,99696.09
2023-04-15T11:46:32.176Z,99695.13
2023-04-15T11:49:01.806Z,99701.28
2023-04-15T11:51:34.741Z,99706.91
2023-04-15T11:54:04.182Z,99710.84
2023-04-15T11:56:32.306Z,99697.97
2023-04-15T11:59:00.325Z,99685.09
2023-04-15T12:01:39.647Z,99691.75
2023-04-15T12:04:16.065Z,99686.88
2023-04-15T12:06:44.152Z,99695.28
2023-04-15T12:09:14.085Z,99694.69
2023-04-15T12:11:48.721Z,99694.38
2023-04-15T12:14:22.456Z,99681.78
2023-04-15T12:16:54.234Z,99675.75
2023-04-15T12:19:36.451Z,99694.84
2023-04-15T12:22:15.764Z,99687.34
2023-04-15T12:24:47.108Z,99685.78
2023-04-15T12:27:17.175Z,99697.31
2023-04-15T12:29:45.236Z,99685.03
2023-04-15T12:32:17.607Z,99684.53
2023-04-15T12:34:51.088Z,99695.84
2023-04-15T12:37:19.053Z,99688.25
2023-04-15T12:39:50.272Z,99690.06
2023-04-15T12:42:20.894Z,99687.63
2023-04-15T12:44:48.857Z,99679.19
2023-04-15T12:47:16.924Z,99700.22
2023-04-15T12:49:44.909Z,99697.47
2023-04-15T12:52:12.867Z,99705.28
2023-04-15T12:54:41.058Z,99707.13
2023-04-15T12:57:09.199Z,99697.03
2023-04-15T12:59:37.679Z,99690.94
2023-04-15T13:02:05.777Z,99706.47
2023-04-15T13:04:33.819Z,99706.47
2023-04-15T13:07:02.634Z,99705.84
2023-04-15T13:09:31.178Z,99702.56
2023-04-15T13:11:59.431Z,99699.94
2023-04-15T13:14:27.379Z,99689.88
2023-04-15T13:16:55.324Z,99689.50
2023-04-15T13:19:25.900Z,99685.78
2023-04-15T13:21:53.846Z,99699.44
2023-04-15T13:24:21.975Z,99696.00
2023-04-15T13:26:50.518Z,99702.78
2023-04-15T13:29:18.511Z,99704.03
2023-04-15T13:31:46.379Z,99702.88
2023-04-15T13:34:14.347Z,99707.53
2023-04-15T13:36:42.281Z,99707.25
2023-04-15T13:39:10.158Z,99710.72
2023-04-15T13:41:38.270Z,99698.69
2023-04-15T13:44:06.692Z,99705.13
2023-04-15T13:46:34.927Z,99705.25
2023-04-15T13:49:06.199Z,99709.06
2023-04-15T13:51:36.273Z,99693.53
2023-04-15T13:54:04.460Z,99708.06
2023-04-15T13:56:32.325Z,99685.72
2023-04-15T13:59:02.494Z,99695.28
2023-04-15T14:01:30.539Z,99697.16
2023-04-15T14:03:58.562Z,99702.88
2023-04-15T14:06:27.521Z,99691.09
2023-04-15T14:08:55.721Z,99693.03
2023-04-15T14:11:23.612Z,99692.44
2023-04-15T14:13:51.587Z,99699.75
2023-04-15T14:16:19.500Z,99704.56
2023-04-15T14:18:47.511Z,99712.19
2023-04-15T14:21:15.384Z,99704.94
2023-04-15T14:23:43.555Z,99696.91
2023-04-15T14:26:11.597Z,99709.06
2023-04-15T14:28:39.680Z,99710.41
2023-04-15T14:31:15.462Z,99704.41
2023-04-15T14:33:43.325Z,99709.00
2023-04-15T14:36:11.198Z,99712.19
2023-04-15T14:38:40.158Z,99714.44
2023-04-15T14:41:08.472Z,99712.16
2023-04-15T14:43:37.047Z,99712.59
2023-04-15T14:46:06.957Z,99710.09
2023-04-15T14:48:36.216Z,99724.66
2023-04-15T14:51:04.235Z,99723.31
2023-04-15T14:53:32.082Z,99727.69
2023-04-15T14:55:59.999Z,99724.69
2023-04-15T14:58:27.881Z,99733.91
2023-04-15T15:00:55.823Z,99729.47
2023-04-15T15:03:23.876Z,99743.00
2023-04-15T15:05:52.119Z,99738.34
2023-04-15T15:08:20.422Z,99737.34
2023-04-15T15:10:49.903Z,99742.91
2023-04-15T15:13:19.319Z,99734.97
2023-04-15T15:15:49.811Z,99753.56
2023-04-15T15:18:19.792Z,99740.50
2023-04-15T15:20:47.975Z,99745.22
2023-04-15T15:23:16.154Z,99765.06
2023-04-15T15:25:45.937Z,99744.78
2023-04-15T15:28:13.859Z,99752.16
2023-04-15T15:30:42.971Z,99760.19
2023-04-15T15:33:13.148Z,99759.41
2023-04-15T15:35:41.324Z,99767.00
2023-04-15T15:38:12.127Z,99777.03
2023-04-15T15:40:40.082Z,99773.66
2023-04-15T15:43:07.984Z,99782.63
2023-04-15T15:45:36.318Z,99760.94
2023-04-15T15:48:05.096Z,99764.19
2023-04-15T15:50:33.042Z,99777.41
2023-04-15T15:53:00.994Z,99774.94
2023-04-15T15:55:28.814Z,99784.44
2023-04-15T15:57:56.749Z,99788.78
2023-04-15T16:00:24.721Z,99783.38
2023-04-15T16:03:06.788Z,99784.28
2023-04-15T16:05:36.561Z,99790.97
2023-04-15T16:08:04.837Z,99793.09
2023-04-15T16:10:32.811Z,99773.00
2023-04-15T16:13:00.947Z,99783.19
2023-04-15T16:15:28.910Z,99782.94
2023-04-15T16:17:57.015Z,99780.00
2023-04-15T16:20:28.589Z,99788.06
2023-04-15T16:22:57.617Z,99792.22
2023-04-15T16:25:27.189Z,99794.97
2023-04-15T16:28:05.394Z,99799.56
2023-04-15T16:30:38.971Z,99791.28
2023-04-15T16:33:06.983Z,99802.34
2023-04-15T16:35:35.020Z,99807.34
2023-04-15T16:38:03.204Z,99799.50
2023-04-15T16:40:31.094Z,99818.75
2023-04-15T16:42:59.276Z,99828.31
2023-04-15T16:45:27.294Z,99831.41
2023-04-15T16:47:56.930Z,99836.72
2023-04-15T16:50:25.195Z,99833.03
2023-04-15T16:52:53.198Z,99850.75
2023-04-15T16:55:21.624Z,99841.91
2023-04-15T16:58:00.983Z,99839.41
2023-04-15T17:00:37.041Z,99855.09
2023-04-15T17:03:05.752Z,99850.28
2023-04-15T17:05:34.068Z,99862.34
2023-04-15T17:08:02.154Z,99866.91
2023-04-15T17:10:31.360Z,99865.97
2023-04-15T17:13:00.016Z,99860.41
2023-04-15T17:15:28.028Z,99862.63
2023-04-15T17:18:12.301Z,99875.38
2023-04-15T17:20:44.667Z,99877.00
2023-04-15T17:23:12.820Z,99881.97
2023-04-15T17:25:41.030Z,99886.72
2023-04-15T17:28:09.154Z,99910.56
2023-04-15T17:30:37.695Z,99892.25
2023-04-15T17:33:53.260Z,99912.22
2023-04-15T17:36:37.583Z,99903.03
2023-04-15T17:39:05.679Z,99925.03
2023-04-15T17:41:53.509Z,99919.84
2023-04-15T17:44:41.328Z,99936.75
2023-04-15T17:47:29.106Z,99916.44
2023-04-15T17:50:16.850Z,99939.31
2023-04-15T17:53:04.877Z,99938.34
2023-04-15T17:55:53.711Z,99933.75
2023-04-15T17:58:41.551Z,99941.72
2023-04-15T18:01:29.388Z,99944.38
2023-04-15T18:04:17.104Z,99951.81
2023-04-15T18:07:06.091Z,99959.91
2023-04-15T18:09:56.045Z,99957.56
2023-04-15T18:12:43.778Z,99969.47
2023-04-15T18:15:31.897Z,99971.34
2023-04-15T18:18:19.682Z,99965.13
2023-04-15T18:21:01.780Z,99986.66
2023-04-15T18:23:29.633Z,99975.66
2023-04-15T18:25:58.253Z,99990.94
2023-04-15T18:28:26.140Z,99996.34
2023-04-15T18:30:54.118Z,99988.25
2023-04-15T18:33:21.952Z,99988.25
2023-04-15T18:35:50.268Z,99998.31
2023-04-15T18:38:18.261Z,100002.19
2023-04-15T18:40:46.215Z,100010.84
2023-04-15T18:43:14.092Z,100012.06
2023-04-15T18:45:42.490Z,100017.31
2023-04-15T18:48:10.559Z,100016.53
2023-04-15T18:50:38.384Z,100029.66
2023-04-15T18:53:06.396Z,100033.06
2023-04-15T18:55:35.631Z,100025.44
2023-04-15T18:58:08.804Z,100034.53
2023-04-15T19:00:41.678Z,100034.69
2023-04-15T19:03:10.574Z,100044.59
2023-04-15T19:05:38.849Z,100041.00
2023-04-15T19:08:08.050Z,100044.50
2023-04-15T19:10:36.126Z,100053.13
2023-04-15T19:13:04.560Z,100057.72
2023-04-15T19:15:32.583Z,100056.06
2023-04-15T19:18:00.442Z,100070.50
2023-04-15T19:20:28.357Z,100085.13
2023-04-15T19:22:56.278Z,100080.56
2023-04-15T19:25:24.124Z,100093.38
2023-04-15T19:27:51.926Z,100087.47
2023-04-15T19:30:22.314Z,100092.22
2023-04-15T19:32:50.344Z,100098.56
2023-04-15T19:35:18.272Z,100092.09
2023-04-15T19:37:47.889Z,100096.31
2023-04-15T19:40:16.070Z,100106.81
2023-04-15T19:42:43.902Z,100105.84
2023-04-15T19:45:11.731Z,100098.41
2023-04-15T19:47:40.859Z,100101.00
2023-04-15T19:50:11.331Z,100104.72
2023-04-15T19:52:39.183Z,100110.22
2023-04-15T19:55:08.426Z,100117.03
2023-04-15T19:57:36.673Z,100108.28
2023-04-15T20:00:04.873Z,100115.72
2023-04-15T20:02:33.732Z,100122.84
2023-04-15T20:05:01.661Z,100117.31
2023-04-15T20:07:29.596Z,100115.88
2023-04-15T20:09:58.132Z,100127.84
2023-04-15T20:12:50.508Z,100126.91
2023-04-15T20:15:14.760Z,100135.63
2023-04-15T20:17:42.665Z,100132.56
2023-04-15T20:20:10.746Z,100135.28
2023-04-15T20:22:38.659Z,100131.81
2023-04-15T20:25:07.063Z,100125.72
2023-04-15T20:27:34.949Z,100126.06
2023-04-15T20:30:05.052Z,100115.72
2023-04-15T20:32:36.137Z,100142.78
2023-04-15T20:35:06.057Z,100149.94
2023-04-15T20:37:34.232Z,100152.69
2023-04-15T20:40:02.400Z,100142.22
2023-04-15T20:42:37.118Z,100142.53
2023-04-15T20:45:08.365Z,100138.88
2023-04-15T20:47:36.305Z,100145.50
2023-04-15T20:50:04.424Z,100151.94
2023-04-15T20:52:32.344Z,100135.84
2023-04-15T20:55:00.252Z,100144.78
2023-04-15T20:57:30.288Z,100152.69
2023-04-15T20:59:58.150Z,100159.34
2023-04-15T21:02:26.327Z,100156.22
2023-04-15T21:04:54.334Z,100161.50
2023-04-15T21:07:23.960Z,100166.00
2023-04-15T21:09:52.023Z,100151.44
2023-04-15T21:12:19.927Z,100170.66
2023-04-15T21:14:47.804Z,100169.88
2023-04-15T21:17:15.836Z,100167.63
2023-04-15T21:19:43.873Z,100182.19
2023-04-15T21:22:11.696Z,100194.69
2023-04-15T21:24:39.561Z,100199.06
2023-04-15T21:27:07.382Z,100188.06
2023-04-15T21:29:35.224Z,100206.97
2023-04-15T21:32:03.175Z,100199.78
2023-04-15T21:34:31.012Z,100220.81
2023-04-15T21:36:58.969Z,100199.88
2023-04-15T21:39:29.783Z,100213.72
2023-04-15T21:41:58.131Z,100217.47
2023-04-15T21:44:25.968Z,100214.00
2023-04-15T21:46:53.968Z,100224.25
2023-04-15T21:49:23.194Z,100224.38
2023-04-15T21:51:52.772Z,100228.44
2023-04-15T21:54:20.865Z,100218.47
2023-04-15T21:56:49.922Z,100227.22
2023-04-15T21:59:20.731Z,100222.66
2023-04-15T22:01:48.887Z,100221.13
2023-04-15T22:04:17.055Z,100223.19
2023-04-15T22:06:44.928Z,100211.75
2023-04-15T22:09:14.391Z,100216.53
2023-04-15T22:11:43.154Z,100230.38
2023-04-15T22:14:13.520Z,100226.41
2023-04-15T22:16:41.621Z,100234.34
2023-04-15T22:19:09.806Z,100232.31
2023-04-15T22:21:37.642Z,100231.69
2023-04-15T22:24:33.178Z,100230.47
2023-04-15T22:26:53.887Z,100214.38
2023-04-15T22:29:22.250Z,100240.28
2023-04-15T22:31:50.116Z,100240.28
2023-04-15T22:34:24.289Z,100238.78
2023-04-15T22:36:52.830Z,100223.56
2023-04-15T22:39:21.211Z,100224.28
2023-04-15T22:41:50.133Z,100248.81
2023-04-15T22:44:18.208Z,100249.03
2023-04-15T22:46:46.054Z,100250.44
2023-04-15T22:49:13.951Z,100245.03
2023-04-15T22:51:41.827Z,100241.44
2023-04-15T22:54:10.020Z,100248.06
2023-04-15T22:56:37.947Z,100252.75
2023-04-15T22:59:05.879Z,100237.63
2023-04-15T23:01:34.011Z,100245.81
2023-04-15T23:04:04.012Z,100245.88
2023-04-15T23:06:38.297Z,100252.97
2023-04-15T23:09:06.150Z,100250.00
2023-04-15T23:11:34.007Z,100255.41
2023-04-15T23:14:02.020Z,100257.00
2023-04-15T23:16:29.973Z,100244.00
2023-04-15T23:18:57.908Z,100244.19
2023-04-15T23:21:27.860Z,100243.13
2023-04-15T23:23:55.715Z,100230.50
2023-04-15T23:26:23.959Z,100231.03
2023-04-15T23:28:51.788Z,100245.66
2023-04-15T23:31:19.630Z,100245.44
2023-04-15T23:33:47.466Z,100242.84
2023-04-15T23:36:17.090Z,100251.38
2023-04-15T23:38:46.573Z,100252.03
2023-04-15T23:41:14.547Z,100265.50
2023-04-15T23:43:42.364Z,100258.75
2023-04-15T23:46:11.955Z,100258.81
2023-04-15T23:48:41.288Z,100262.44
2023-04-15T23:51:12.022Z,100250.00
2023-04-15T23:53:39.773Z,100263.75
2023-04-15T23:56:07.894Z,100268.53
2023-04-15T23:58:35.945Z,100260.44
